Time,TemperatureF,DewpointF,PressureIn,WindDirection,WindDirectionDegrees,WindSpeedMPH,WindSpeedGustMPH,Humidity,HourlyPrecipIn,Conditions,Clouds,dailyrainin,SoftwareType,DateUTC
2013-08-21 00:23:00,79.0,68.0,29.66,SSE,161,0.0,-999.0,69,0.00,,,0.00,,2013-08-21 05:23:00,
2013-08-21 00:52:00,78.0,68.0,29.67,SSE,161,1.0,-999.0,71,0.00,,,0.00,,2013-08-21 05:52:00,
2013-08-21 01:22:00,77.0,68.0,29.67,NE,50,0.0,-999.0,73,0.00,,,0.00,,2013-08-21 06:22:00,
2013-08-21 01:52:00,76.0,68.0,29.67,SE,145,0.0,-999.0,76,0.00,,,0.00,,2013-08-21 06:52:00,
2013-08-21 02:21:00,76.0,69.0,29.67,South,170,1.0,-999.0,79,0.00,,,0.00,,2013-08-21 07:21:00,
2013-08-21 02:53:00,75.0,69.0,29.68,SE,134,1.0,-999.0,81,0.00,,,0.00,,2013-08-21 07:53:00,
2013-08-21 03:22:00,74.0,68.0,29.68,SE,134,0.0,-999.0,82,0.00,,,0.00,,2013-08-21 08:22:00,
2013-08-21 03:53:00,75.0,69.0,29.68,WSW,240,0.0,-999.0,83,0.00,,,0.00,,2013-08-21 08:53:00,
2013-08-21 04:22:00,75.0,69.0,29.68,SSW,213,0.0,-999.0,82,0.00,,,0.00,,2013-08-21 09:22:00,
2013-08-21 04:53:00,74.0,68.0,29.68,SSW,213,0.0,-999.0,83,0.00,,,0.00,,2013-08-21 09:53:00,
2013-08-21 05:23:00,75.0,69.0,29.68,SSW,213,0.0,-999.0,82,0.00,,,0.00,,2013-08-21 10:23:00,
2013-08-21 05:52:00,74.0,68.0,29.68,SSW,213,0.0,-999.0,83,0.00,,,0.00,,2013-08-21 10:52:00,
2013-08-21 06:22:00,73.0,68.0,29.69,SSW,213,0.0,-999.0,85,0.00,,,0.00,,2013-08-21 11:22:00,
2013-08-21 06:52:00,72.0,68.0,29.69,SSW,213,0.0,-999.0,86,0.00,,,0.00,,2013-08-21 11:52:00,
2013-08-21 07:22:00,72.0,68.0,29.70,SSW,213,0.0,-999.0,87,0.00,,,0.00,,2013-08-21 12:22:00,
2013-08-21 07:52:00,72.0,68.0,29.70,SSW,213,0.0,-999.0,87,0.00,,,0.00,,2013-08-21 12:52:00,
2013-08-21 08:12:00,74.0,70.0,29.71,SSW,213,0.0,-999.0,87,0.00,,,0.00,,2013-08-21 13:12:00,
2013-08-21 08:21:00,74.0,70.0,29.71,SSW,213,0.0,-999.0,87,0.00,,,0.00,,2013-08-21 13:21:00,
2013-08-21 08:52:00,77.0,71.0,29.72,SSW,213,0.0,-999.0,82,0.00,,,0.00,,2013-08-21 13:52:00,
2013-08-21 09:21:00,77.0,71.0,29.73,SSW,202,0.0,-999.0,81,0.00,,,0.00,,2013-08-21 14:21:00,
2013-08-21 09:52:00,79.0,72.0,29.74,SE,127,2.0,-999.0,79,0.00,,,0.00,,2013-08-21 14:52:00,
2013-08-21 10:22:00,81.0,73.0,29.73,SE,124,0.0,-999.0,76,0.00,,,0.00,,2013-08-21 15:22:00,
2013-08-21 10:34:00,81.0,73.0,29.73,SE,124,0.0,-999.0,76,0.00,,,0.00,,2013-08-21 15:34:00,
2013-08-21 10:54:00,83.0,73.0,29.73,SE,146,0.0,-999.0,72,0.00,,,0.00,,2013-08-21 15:54:00,
2013-08-21 11:24:00,84.0,71.0,29.73,ENE,71,2.0,-999.0,66,0.00,,,0.00,,2013-08-21 16:24:00,
2013-08-21 11:53:00,86.0,72.0,29.73,SE,135,2.0,-999.0,63,0.00,,,0.00,,2013-08-21 16:53:00,
2013-08-21 12:23:00,88.0,70.0,29.73,ESE,116,3.0,-999.0,56,0.00,,,0.00,,2013-08-21 17:23:00,
2013-08-21 12:53:00,89.0,70.0,29.72,SSW,207,4.0,-999.0,54,0.00,,,0.00,,2013-08-21 17:53:00,
2013-08-21 13:12:00,89.0,70.0,29.72,ESE,121,2.0,-999.0,53,0.00,,,0.00,,2013-08-21 18:12:00,
2013-08-21 13:22:00,90.0,69.0,29.71,East,83,1.0,-999.0,51,0.00,,,0.00,,2013-08-21 18:22:00,
2013-08-21 13:52:00,91.0,70.0,29.70,SSE,150,0.0,-999.0,50,0.00,,,0.00,,2013-08-21 18:52:00,
2013-08-21 14:22:00,90.0,69.0,29.70,ESE,105,0.0,-999.0,50,0.00,,,0.00,,2013-08-21 19:22:00,
2013-08-21 14:52:00,92.0,69.0,29.68,East,81,3.0,-999.0,47,0.00,,,0.00,,2013-08-21 19:52:00,
2013-08-21 15:22:00,93.0,68.0,29.66,SE,126,1.0,-999.0,44,0.00,,,0.00,,2013-08-21 20:22:00,
2013-08-21 15:52:00,94.0,68.0,29.65,NNE,17,2.0,-999.0,43,0.00,,,0.00,,2013-08-21 20:52:00,
2013-08-21 16:21:00,94.0,67.0,29.65,SE,128,1.0,-999.0,42,0.00,,,0.00,,2013-08-21 21:21:00,
2013-08-21 17:24:00,95.0,68.0,29.62,ESE,103,3.0,-999.0,41,0.00,,,0.00,,2013-08-21 22:24:00,
2013-08-21 17:53:00,95.0,68.0,29.61,SSE,147,1.0,-999.0,41,0.00,,,0.00,,2013-08-21 22:53:00,
2013-08-21 18:22:00,95.0,68.0,29.62,ENE,68,3.0,-999.0,41,0.00,,,0.00,,2013-08-21 23:22:00,
2013-08-21 18:53:00,94.0,67.0,29.62,ENE,78,10.0,-999.0,41,0.00,,,0.00,,2013-08-21 23:53:00,
2013-08-21 19:22:00,91.0,67.0,29.63,East,101,3.0,-999.0,45,0.00,,,0.00,,2013-08-22 00:22:00,
2013-08-21 19:42:00,90.0,68.0,29.62,East,79,0.0,-999.0,49,0.00,,,0.00,,2013-08-22 00:42:00,
2013-08-21 19:52:00,89.0,68.0,29.62,ENE,72,2.0,-999.0,50,0.00,,,0.00,,2013-08-22 00:52:00,
2013-08-21 20:22:00,88.0,68.0,29.62,South,175,2.0,-999.0,52,0.00,,,0.00,,2013-08-22 01:22:00,
2013-08-21 20:52:00,87.0,68.0,29.64,SE,140,2.0,-999.0,53,0.00,,,0.00,,2013-08-22 01:52:00,
2013-08-21 21:22:00,87.0,69.0,29.65,ENE,71,2.0,-999.0,56,0.00,,,0.00,,2013-08-22 02:22:00,
2013-08-21 22:22:00,84.0,70.0,29.69,SSE,166,1.0,-999.0,62,0.00,,,0.00,,2013-08-22 03:22:00,
2013-08-21 22:54:00,84.0,70.0,29.70,SSE,161,0.0,-999.0,64,0.00,,,0.00,,2013-08-22 03:54:00,
2013-08-21 23:23:00,83.0,70.0,29.71,SSW,208,0.0,-999.0,66,0.00,,,0.00,,2013-08-22 04:23:00,
2013-08-21 23:54:00,82.0,70.0,29.71,South,183,1.0,-999.0,67,0.00,,,0.00,,2013-08-22 04:54:00,